createdAt,value
2019-02-06T00:02:28.198Z,31.80
2019-02-06T00:05:14.055Z,32.40
2019-02-06T00:08:02.183Z,34.17
2019-02-06T00:10:44.260Z,36.20
2019-02-06T00:13:33.796Z,37.07
2019-02-06T00:16:15.872Z,32.53
2019-02-06T00:19:05.490Z,35.03
2019-02-06T00:21:47.503Z,34.03
2019-02-06T00:24:37.058Z,36.23
2019-02-06T00:27:19.699Z,36.40
2019-02-06T00:30:49.667Z,34.27
2019-02-06T00:33:31.948Z,33.37
2019-02-06T00:36:40.478Z,28.80
2019-02-06T00:39:22.509Z,30.10
2019-02-06T00:42:12.053Z,29.97
2019-02-06T00:44:54.289Z,30.37
2019-02-06T00:47:36.870Z,30.17
2019-02-06T00:50:45.287Z,35.47
2019-02-06T00:53:27.243Z,30.53
2019-02-06T00:56:16.901Z,32.53
2019-02-06T00:58:58.914Z,27.17
2019-02-06T01:01:48.392Z,31.53
2019-02-06T01:04:30.904Z,42.27
2019-02-06T01:07:20.480Z,34.30
2019-02-06T01:10:02.682Z,38.20
2019-02-06T01:12:52.301Z,36.40
2019-02-06T01:15:34.503Z,32.97
2019-02-06T01:18:24.049Z,29.57
2019-02-06T01:21:06.537Z,30.17
2019-02-06T01:23:56.200Z,32.17
2019-02-06T01:26:38.611Z,31.87
2019-02-06T01:29:20.715Z,31.53
2019-02-06T01:32:10.625Z,32.60
2019-02-06T01:34:52.901Z,28.97
2019-02-06T01:37:42.414Z,28.00
2019-02-06T01:40:24.065Z,46.07
2019-02-06T01:43:13.551Z,30.73
2019-02-06T01:45:57.279Z,30.30
2019-02-06T01:49:05.905Z,32.47
2019-02-06T01:51:48.315Z,30.20
2019-02-06T01:57:44.997Z,35.60
2019-02-06T02:00:34.555Z,30.33
2019-02-06T02:03:24.067Z,30.80
2019-02-06T02:06:06.276Z,27.60
2019-02-06T02:12:03.778Z,32.40
2019-02-06T02:14:53.597Z,32.67
2019-02-06T02:17:36.008Z,30.90
2019-02-06T02:20:25.515Z,26.97
2019-02-06T02:23:07.856Z,28.70
2019-02-06T02:29:05.182Z,28.40
2019-02-06T02:31:54.757Z,21.73
2019-02-06T02:34:56.758Z,22.50
2019-02-06T02:37:35.550Z,20.37
2019-02-06T02:40:17.273Z,24.87
2019-02-06T02:43:07.081Z,24.47
2019-02-06T02:45:51.679Z,25.73
2019-02-06T02:48:41.211Z,25.93
2019-02-06T02:51:23.448Z,25.17
2019-02-06T02:54:12.993Z,24.73
2019-02-06T02:56:54.979Z,24.10
2019-02-06T02:59:44.511Z,27.83
2019-02-06T03:05:31.977Z,31.23
2019-02-06T03:08:14.596Z,27.23
2019-02-06T03:14:12.233Z,27.10
2019-02-06T03:17:03.369Z,28.77
2019-02-06T03:19:45.272Z,28.60
2019-02-06T03:25:43.546Z,28.73
2019-02-06T03:28:25.745Z,32.27
2019-02-06T03:31:15.284Z,37.67
2019-02-06T03:33:59.677Z,34.57
2019-02-06T03:36:49.176Z,34.47
2019-02-06T03:39:31.539Z,31.20
2019-02-06T03:42:21.082Z,36.13
2019-02-06T03:45:03.638Z,36.80
2019-02-06T03:47:53.527Z,34.50
2019-02-06T03:50:36.304Z,43.33
2019-02-06T03:53:25.873Z,29.27
2019-02-06T03:56:09.494Z,32.20
2019-02-06T03:58:51.568Z,36.63
2019-02-06T04:01:41.148Z,38.97
2019-02-06T04:04:23.706Z,39.63
2019-02-06T04:10:06.457Z,36.27
2019-02-06T04:12:55.972Z,37.33
2019-02-06T04:15:38.434Z,42.97
2019-02-06T04:18:28.069Z,41.87
2019-02-06T04:21:11.677Z,37.87
2019-02-06T04:24:01.193Z,33.87
2019-02-06T04:26:43.455Z,32.73
2019-02-06T04:29:25.903Z,30.93
2019-02-06T04:35:22.103Z,27.20
2019-02-06T04:38:11.626Z,27.03
2019-02-06T04:40:53.749Z,24.47
2019-02-06T04:44:02.253Z,31.33
2019-02-06T04:46:43.981Z,26.13
2019-02-06T04:49:52.450Z,28.13
2019-02-06T04:52:34.334Z,27.07
2019-02-06T04:55:23.881Z,26.67
2019-02-06T04:58:06.278Z,23.70
2019-02-06T05:04:02.519Z,26.80
2019-02-06T05:15:55.828Z,24.80
2019-02-06T05:18:38.242Z,29.87
2019-02-06T05:21:27.745Z,29.53
2019-02-06T05:24:10.278Z,28.67
2019-02-06T05:26:59.814Z,28.43
2019-02-06T05:29:42.299Z,25.83
2019-02-06T05:35:38.732Z,24.07
2019-02-06T05:38:28.629Z,24.50
2019-02-06T05:44:27.595Z,27.53
2019-02-06T05:50:18.239Z,30.80
2019-02-06T05:53:02.608Z,32.30
2019-02-06T05:55:52.118Z,29.00
2019-02-06T05:58:33.771Z,31.33
2019-02-06T06:04:24.437Z,27.17
2019-02-06T06:10:11.902Z,29.83
2019-02-06T06:13:01.885Z,30.70
2019-02-06T06:15:44.544Z,29.77
2019-02-06T06:18:34.109Z,30.53
2019-02-06T06:21:16.687Z,31.17
2019-02-06T06:24:09.036Z,33.17
2019-02-06T06:26:50.702Z,29.90
2019-02-06T06:30:00.418Z,30.70
2019-02-06T06:32:46.754Z,35.07
2019-02-06T06:35:35.893Z,36.77
2019-02-06T06:38:17.777Z,27.10
2019-02-06T06:41:07.433Z,36.57
2019-02-06T06:43:49.227Z,36.30
2019-02-06T06:46:38.773Z,32.30
2019-02-06T06:49:21.146Z,34.57
2019-02-06T06:52:10.732Z,35.33
2019-02-06T06:54:58.188Z,38.27
2019-02-06T06:57:40.037Z,38.07
2019-02-06T07:01:10.997Z,40.83
2019-02-06T07:03:54.043Z,37.20
2019-02-06T07:09:51.358Z,37.93
2019-02-06T07:12:33.691Z,45.57
2019-02-06T07:15:25.691Z,41.07
2019-02-06T07:18:07.586Z,46.50
2019-02-06T07:20:49.362Z,42.47
2019-02-06T07:23:40.642Z,39.90
2019-02-06T07:26:23.536Z,36.93
2019-02-06T07:29:31.960Z,41.30
2019-02-06T07:32:14.174Z,46.10
2019-02-06T07:38:23.245Z,48.07
2019-02-06T07:44:03.118Z,43.00
2019-02-06T07:46:45.043Z,39.20
2019-02-06T07:49:34.606Z,44.90
2019-02-06T07:52:17.142Z,44.57
2019-02-06T07:58:16.713Z,48.43
2019-02-06T08:01:06.274Z,43.73
2019-02-06T08:03:48.823Z,43.87
2019-02-06T08:06:38.400Z,40.97
2019-02-06T08:09:22.280Z,40.40
2019-02-06T08:12:11.853Z,45.50
2019-02-06T08:14:54.391Z,40.20
2019-02-06T08:17:43.927Z,40.13
2019-02-06T08:20:26.496Z,40.57
2019-02-06T08:23:16.303Z,43.20
2019-02-06T08:25:58.681Z,38.17
2019-02-06T08:28:48.193Z,43.57
2019-02-06T08:31:30.869Z,41.83
2019-02-06T08:37:26.884Z,38.63
2019-02-06T08:40:27.612Z,43.97
2019-02-06T08:43:17.168Z,38.23
2019-02-06T08:45:59.537Z,44.43
2019-02-06T08:49:10.887Z,36.87
2019-02-06T08:51:52.063Z,41.83
2019-02-06T08:54:41.590Z,38.47
2019-02-06T08:57:24.005Z,39.70
2019-02-06T09:03:44.221Z,38.90
2019-02-06T09:06:26.273Z,38.13
2019-02-06T09:09:16.079Z,42.43
2019-02-06T09:11:58.590Z,43.93
2019-02-06T09:14:48.109Z,44.93
2019-02-06T09:17:37.629Z,41.73
2019-02-06T09:20:23.590Z,40.90
2019-02-06T09:23:13.106Z,36.43
2019-02-06T09:25:57.415Z,36.60
2019-02-06T09:28:46.238Z,34.13
2019-02-06T09:31:28.414Z,38.40
2019-02-06T09:34:17.991Z,35.87
2019-02-06T09:36:59.687Z,31.53
2019-02-06T09:40:08.099Z,34.07
2019-02-06T09:42:49.971Z,29.60
2019-02-06T09:48:47.755Z,36.87
2019-02-06T09:51:37.396Z,39.87
2019-02-06T09:54:20.019Z,34.87
2019-02-06T09:57:09.555Z,34.17
2019-02-06T09:59:53.228Z,36.50
2019-02-06T10:05:49.538Z,35.13
2019-02-06T10:08:39.083Z,33.33
2019-02-06T10:11:30.750Z,34.10
2019-02-06T10:14:12.631Z,30.37
2019-02-06T10:17:02.178Z,36.93
2019-02-06T10:19:51.719Z,36.17
2019-02-06T10:22:34.043Z,35.00
2019-02-06T10:25:42.653Z,38.43
2019-02-06T10:28:24.804Z,37.33
2019-02-06T10:31:14.463Z,34.07
2019-02-06T10:33:56.907Z,37.63
2019-02-06T10:37:05.672Z,36.53
2019-02-06T10:39:48.031Z,33.87
2019-02-06T10:45:46.509Z,33.33
2019-02-06T10:48:55.613Z,31.57
2019-02-06T10:51:40.265Z,34.33
2019-02-06T10:54:29.816Z,32.97
2019-02-06T10:57:38.199Z,34.27
2019-02-06T11:00:22.662Z,32.70
2019-02-06T11:06:19.947Z,33.43
2019-02-06T11:09:20.742Z,30.50
2019-02-06T11:12:10.246Z,38.63
2019-02-06T11:14:52.476Z,31.27
2019-02-06T11:17:34.365Z,32.47
2019-02-06T11:23:59.033Z,28.20
2019-02-06T11:26:48.672Z,29.33
2019-02-06T11:29:30.389Z,30.90
2019-02-06T11:32:20.242Z,28.50
2019-02-06T11:35:02.836Z,28.47
2019-02-06T11:37:52.445Z,27.07
2019-02-06T11:40:34.588Z,27.93
2019-02-06T11:43:24.088Z,29.87
2019-02-06T11:46:08.942Z,31.00
2019-02-06T11:48:57.362Z,26.43
2019-02-06T11:51:39.681Z,26.73
2019-02-06T11:54:29.173Z,25.53
2019-02-06T11:57:13.570Z,27.13
2019-02-06T12:03:06.809Z,28.57
2019-02-06T12:09:03.279Z,31.37
2019-02-06T12:15:02.064Z,30.70
2019-02-06T12:17:45.856Z,29.17
2019-02-06T12:20:35.374Z,32.87
2019-02-06T12:23:43.956Z,31.90
2019-02-06T12:26:26.031Z,32.87
2019-02-06T12:29:15.535Z,31.90
2019-02-06T12:31:57.909Z,33.27
2019-02-06T12:34:47.435Z,31.57
2019-02-06T12:37:31.104Z,34.73
2019-02-06T12:43:28.856Z,34.57
2019-02-06T12:46:18.375Z,35.93
2019-02-06T12:49:08.013Z,33.37
2019-02-06T12:51:52.473Z,35.13
2019-02-06T12:54:41.796Z,33.87
2019-02-06T12:57:35.986Z,30.50
2019-02-06T13:03:46.519Z,30.70
2019-02-06T13:06:36.057Z,27.03
2019-02-06T13:09:17.913Z,27.10
2019-02-06T13:12:07.534Z,29.57
2019-02-06T13:14:50.073Z,29.40
2019-02-06T13:17:32.183Z,32.07
2019-02-06T13:20:40.919Z,34.87
2019-02-06T13:23:23.223Z,33.57
2019-02-06T13:26:12.794Z,30.07
2019-02-06T13:28:55.499Z,35.17
2019-02-06T13:34:46.073Z,34.43
2019-02-06T13:37:28.128Z,34.67
2019-02-06T13:40:57.792Z,33.80
2019-02-06T13:43:39.763Z,33.43
2019-02-06T13:46:29.288Z,34.17
2019-02-06T13:49:11.782Z,33.83
2019-02-06T13:52:01.322Z,31.37
2019-02-06T13:54:50.862Z,31.67
2019-02-06T13:57:34.186Z,34.83
2019-02-06T14:01:04.098Z,36.13
2019-02-06T14:03:46.716Z,30.20
2019-02-06T14:06:36.217Z,30.70
2019-02-06T14:09:22.653Z,29.47
2019-02-06T14:12:09.800Z,33.57
2019-02-06T14:14:52.304Z,31.80
2019-02-06T14:17:41.843Z,30.03
2019-02-06T14:20:24.566Z,35.73
2019-02-06T14:23:34.721Z,30.77
2019-02-06T14:26:22.330Z,31.13
2019-02-06T14:29:49.970Z,37.00
2019-02-06T14:32:51.351Z,34.67
2019-02-06T14:36:19.013Z,35.03
2019-02-06T14:39:21.079Z,35.80
2019-02-06T14:42:48.687Z,36.77
2019-02-06T14:45:55.994Z,39.73
2019-02-06T14:49:23.634Z,36.50
2019-02-06T14:52:31.164Z,41.00
2019-02-06T14:55:58.810Z,38.57
2019-02-06T14:59:00.090Z,42.03
2019-02-06T15:02:27.728Z,42.90
2019-02-06T15:05:29.344Z,37.07
2019-02-06T15:08:57.082Z,39.20
2019-02-06T15:11:57.924Z,43.23
2019-02-06T15:15:30.461Z,40.67
2019-02-06T15:18:58.144Z,38.67
2019-02-06T15:25:33.651Z,40.30
2019-02-06T15:28:34.571Z,39.20
2019-02-06T15:32:02.429Z,49.33
2019-02-06T15:34:52.249Z,43.27
2019-02-06T15:38:05.577Z,46.53
2019-02-06T15:41:06.905Z,44.80
2019-02-06T15:44:38.237Z,45.33
2019-02-06T15:47:39.749Z,43.70
2019-02-06T15:51:07.460Z,40.30
2019-02-06T15:53:55.585Z,38.57
2019-02-06T15:57:23.212Z,39.27
2019-02-06T16:00:10.832Z,39.90
2019-02-06T16:03:57.391Z,44.63
2019-02-06T16:06:49.983Z,42.77
2019-02-06T16:10:17.580Z,38.50
2019-02-06T16:13:45.248Z,38.90
2019-02-06T16:16:46.819Z,45.23
2019-02-06T16:20:14.438Z,44.07
2019-02-06T16:23:42.056Z,44.77
2019-02-06T16:26:43.463Z,43.07
2019-02-06T16:30:11.110Z,43.97
2019-02-06T16:33:18.493Z,45.23
2019-02-06T16:36:46.160Z,46.53
2019-02-06T16:43:17.474Z,46.77
2019-02-06T16:49:32.014Z,44.37
2019-02-06T16:52:59.643Z,45.10
2019-02-06T16:56:00.531Z,41.30
2019-02-06T17:06:13.175Z,45.40
2019-02-06T17:13:07.447Z,41.37
2019-02-06T17:16:08.534Z,49.17
2019-02-06T17:23:10.323Z,42.37
2019-02-06T17:26:07.043Z,46.80
2019-02-06T17:29:34.675Z,50.17
2019-02-06T17:32:38.597Z,60.73
2019-02-06T17:36:06.335Z,49.93
2019-02-06T17:39:23.565Z,45.40
2019-02-06T17:42:01.328Z,41.30
2019-02-06T17:45:28.931Z,41.37
2019-02-06T17:48:30.294Z,40.80
2019-02-06T17:51:57.957Z,39.27
2019-02-06T17:55:26.752Z,45.83
2019-02-06T17:58:14.817Z,41.67
2019-02-06T18:01:21.799Z,43.83
2019-02-06T18:04:49.452Z,40.60
2019-02-06T18:07:31.905Z,42.13
2019-02-06T18:10:21.579Z,48.73
2019-02-06T18:13:03.315Z,37.63
2019-02-06T18:15:52.912Z,39.77
2019-02-06T18:18:35.401Z,34.90
2019-02-06T18:21:24.973Z,42.33
2019-02-06T18:24:14.703Z,39.27
2019-02-06T18:26:58.017Z,47.43
2019-02-06T18:30:06.675Z,46.33
2019-02-06T18:32:49.551Z,50.03
2019-02-06T18:36:18.530Z,41.47
2019-02-06T18:39:00.470Z,40.53
2019-02-06T18:47:56.394Z,33.17
2019-02-06T18:50:57.322Z,36.77
2019-02-06T18:56:40.624Z,39.73
2019-02-06T18:59:30.302Z,40.90
2019-02-06T19:02:19.923Z,38.10
2019-02-06T19:05:02.126Z,32.63
2019-02-06T19:10:44.517Z,37.57
2019-02-06T19:13:45.536Z,36.93
2019-02-06T19:22:51.768Z,37.53
2019-02-06T19:28:55.778Z,45.57
2019-02-06T19:31:57.192Z,48.13
2019-02-06T19:37:52.455Z,41.80
2019-02-06T19:41:01.152Z,41.20
2019-02-06T19:43:47.800Z,40.47
2019-02-06T19:46:29.911Z,38.27
2019-02-06T19:52:28.516Z,30.97
2019-02-06T19:55:18.642Z,39.37
2019-02-06T19:58:01.148Z,36.70
2019-02-06T20:01:04.807Z,41.17
2019-02-06T20:04:04.010Z,37.53
2019-02-06T20:06:51.015Z,40.30
2019-02-06T20:09:40.814Z,43.27
2019-02-06T20:12:25.509Z,41.33
2019-02-06T20:21:20.397Z,41.47
2019-02-06T20:24:05.438Z,41.17
2019-02-06T20:30:03.239Z,39.87
2019-02-06T20:36:25.131Z,41.70
2019-02-06T20:45:44.755Z,48.07
2019-02-06T20:48:27.182Z,47.80
2019-02-06T20:54:28.174Z,53.50
2019-02-06T20:57:36.864Z,52.63
2019-02-06T21:04:06.209Z,51.80
2019-02-06T21:06:48.330Z,52.60
2019-02-06T21:12:46.200Z,59.83
2019-02-06T21:22:21.334Z,58.83
2019-02-06T21:25:05.237Z,58.20
2019-02-06T21:28:06.074Z,62.03
2019-02-06T21:31:07.094Z,59.77
2019-02-06T21:37:04.601Z,57.47
2019-02-06T21:40:05.391Z,59.07
2019-02-06T21:43:06.071Z,62.50
2019-02-06T21:45:55.638Z,62.90
2019-02-06T21:48:38.142Z,55.73
2019-02-06T21:51:27.961Z,47.57
2019-02-06T21:57:33.097Z,58.23
2019-02-06T22:00:17.018Z,52.60
2019-02-06T22:06:16.153Z,55.40
2019-02-06T22:12:35.621Z,49.13
2019-02-06T22:22:11.781Z,51.20
2019-02-06T22:25:01.183Z,51.50
2019-02-06T22:27:50.934Z,61.50
2019-02-06T22:30:35.003Z,52.87
2019-02-06T22:33:24.919Z,54.90
2019-02-06T22:36:06.968Z,40.63
2019-02-06T22:41:57.819Z,47.40
2019-02-06T22:44:40.222Z,43.90
2019-02-06T22:47:48.709Z,47.93
2019-02-06T22:50:32.204Z,41.07
2019-02-06T22:53:21.730Z,40.60
2019-02-06T22:56:04.141Z,48.00
2019-02-06T23:02:00.538Z,48.13
2019-02-06T23:04:43.028Z,43.27
2019-02-06T23:07:51.471Z,40.57
2019-02-06T23:10:36.823Z,34.63
2019-02-06T23:13:18.091Z,42.20
2019-02-06T23:16:07.711Z,33.93
2019-02-06T23:18:52.114Z,36.70
2019-02-06T23:21:41.364Z,44.57
2019-02-06T23:24:23.759Z,38.17
2019-02-06T23:27:13.281Z,41.13
2019-02-06T23:29:55.489Z,54.00
2019-02-06T23:32:45.014Z,53.17
2019-02-06T23:35:27.537Z,44.67
2019-02-06T23:38:17.074Z,44.70
2019-02-06T23:41:00.633Z,43.53
2019-02-06T23:44:09.030Z,43.37
2019-02-06T23:46:51.156Z,45.33
2019-02-06T23:52:48.011Z,48.07
2019-02-06T23:58:38.641Z,42.30
